sensor_id;sensor_type;location;lat;lon;timestamp;P1;durP1;ratioP1;P2;durP2;ratioP2
24729;SDS011;12832;52.392;13.066;2022-08-19T00:01:37;3.30;;;3.10;;
24729;SDS011;12832;52.392;13.066;2022-08-19T00:04:06;3.15;;;2.95;;
24729;SDS011;12832;52.392;13.066;2022-08-19T00:06:34;3.53;;;3.33;;
24729;SDS011;12832;52.392;13.066;2022-08-19T00:09:02;3.42;;;3.22;;
24729;SDS011;12832;52.392;13.066;2022-08-19T00:11:29;3.08;;;2.88;;
24729;SDS011;12832;52.392;13.066;2022-08-19T00:13:57;3.28;;;3.08;;
24729;SDS011;12832;52.392;13.066;2022-08-19T00:16:24;2.88;;;2.75;;
24729;SDS011;12832;52.392;13.066;2022-08-19T00:18:52;3.17;;;2.97;;
24729;SDS011;12832;52.392;13.066;2022-08-19T00:21:20;3.30;;;3.10;;
24729;SDS011;12832;52.392;13.066;2022-08-19T00:23:47;3.20;;;3.00;;
24729;SDS011;12832;52.392;13.066;2022-08-19T00:26:13;3.40;;;3.20;;
24729;SDS011;12832;52.392;13.066;2022-08-19T00:28:39;3.40;;;3.20;;
24729;SDS011;12832;52.392;13.066;2022-08-19T00:31:06;3.35;;;3.15;;
24729;SDS011;12832;52.392;13.066;2022-08-19T00:33:34;2.78;;;2.60;;
24729;SDS011;12832;52.392;13.066;2022-08-19T00:36:00;3.15;;;2.95;;
24729;SDS011;12832;52.392;13.066;2022-08-19T00:38:30;3.45;;;3.25;;
24729;SDS011;12832;52.392;13.066;2022-08-19T00:41:05;3.22;;;3.03;;
24729;SDS011;12832;52.392;13.066;2022-08-19T00:43:33;3.25;;;3.05;;
24729;SDS011;12832;52.392;13.066;2022-08-19T00:45:59;3.10;;;2.90;;
24729;SDS011;12832;52.392;13.066;2022-08-19T00:48:28;3.40;;;3.20;;
24729;SDS011;12832;52.392;13.066;2022-08-19T00:50:54;2.80;;;2.60;;
24729;SDS011;12832;52.392;13.066;2022-08-19T00:53:21;3.25;;;3.05;;
24729;SDS011;12832;52.392;13.066;2022-08-19T00:55:52;3.50;;;3.30;;
24729;SDS011;12832;52.392;13.066;2022-08-19T00:58:22;3.78;;;3.58;;
24729;SDS011;12832;52.392;13.066;2022-08-19T01:00:52;3.38;;;3.17;;
24729;SDS011;12832;52.392;13.066;2022-08-19T01:03:19;3.17;;;2.97;;
24729;SDS011;12832;52.392;13.066;2022-08-19T01:05:46;3.17;;;2.97;;
24729;SDS011;12832;52.392;13.066;2022-08-19T01:08:15;3.30;;;3.10;;
24729;SDS011;12832;52.392;13.066;2022-08-19T01:10:51;3.30;;;3.10;;
24729;SDS011;12832;52.392;13.066;2022-08-19T01:13:21;2.80;;;2.63;;
24729;SDS011;12832;52.392;13.066;2022-08-19T01:15:53;3.13;;;2.92;;
24729;SDS011;12832;52.392;13.066;2022-08-19T01:18:27;3.00;;;2.80;;
24729;SDS011;12832;52.392;13.066;2022-08-19T01:20:55;3.35;;;3.15;;
24729;SDS011;12832;52.392;13.066;2022-08-19T01:23:24;3.03;;;2.83;;
24729;SDS011;12832;52.392;13.066;2022-08-19T01:26:12;3.35;;;3.15;;
24729;SDS011;12832;52.392;13.066;2022-08-19T01:28:40;3.28;;;3.08;;
24729;SDS011;12832;52.392;13.066;2022-08-19T01:31:09;3.20;;;3.00;;
24729;SDS011;12832;52.392;13.066;2022-08-19T01:33:55;2.90;;;2.70;;
24729;SDS011;12832;52.392;13.066;2022-08-19T01:36:30;2.95;;;2.80;;
24729;SDS011;12832;52.392;13.066;2022-08-19T01:38:59;3.20;;;3.00;;
24729;SDS011;12832;52.392;13.066;2022-08-19T01:41:27;3.13;;;2.92;;
24729;SDS011;12832;52.392;13.066;2022-08-19T01:43:53;3.30;;;3.10;;
24729;SDS011;12832;52.392;13.066;2022-08-19T01:46:40;3.20;;;3.00;;
24729;SDS011;12832;52.392;13.066;2022-08-19T01:49:07;3.42;;;3.22;;
24729;SDS011;12832;52.392;13.066;2022-08-19T01:51:33;3.33;;;3.13;;
24729;SDS011;12832;52.392;13.066;2022-08-19T01:54:05;3.13;;;2.92;;
24729;SDS011;12832;52.392;13.066;2022-08-19T01:56:37;3.40;;;3.20;;
24729;SDS011;12832;52.392;13.066;2022-08-19T01:59:04;3.25;;;3.05;;
24729;SDS011;12832;52.392;13.066;2022-08-19T02:01:35;2.85;;;2.65;;
24729;SDS011;12832;52.392;13.066;2022-08-19T02:04:02;3.10;;;2.90;;
24729;SDS011;12832;52.392;13.066;2022-08-19T02:06:28;3.08;;;2.88;;
24729;SDS011;12832;52.392;13.066;2022-08-19T02:08:55;3.20;;;3.00;;
24729;SDS011;12832;52.392;13.066;2022-08-19T02:11:30;3.05;;;2.85;;
24729;SDS011;12832;52.392;13.066;2022-08-19T02:13:59;3.08;;;2.88;;
24729;SDS011;12832;52.392;13.066;2022-08-19T02:16:27;3.05;;;2.85;;
24729;SDS011;12832;52.392;13.066;2022-08-19T02:18:54;3.15;;;2.95;;
24729;SDS011;12832;52.392;13.066;2022-08-19T02:21:21;3.00;;;2.80;;
24729;SDS011;12832;52.392;13.066;2022-08-19T02:23:49;3.40;;;3.10;;
24729;SDS011;12832;52.392;13.066;2022-08-19T02:26:16;3.38;;;3.17;;
24729;SDS011;12832;52.392;13.066;2022-08-19T02:28:44;3.40;;;3.20;;
24729;SDS011;12832;52.392;13.066;2022-08-19T02:31:14;3.00;;;2.80;;
24729;SDS011;12832;52.392;13.066;2022-08-19T02:33:43;3.13;;;2.92;;
24729;SDS011;12832;52.392;13.066;2022-08-19T02:36:11;3.03;;;2.83;;
24729;SDS011;12832;52.392;13.066;2022-08-19T02:38:40;3.47;;;3.28;;
24729;SDS011;12832;52.392;13.066;2022-08-19T02:41:09;3.00;;;2.80;;
24729;SDS011;12832;52.392;13.066;2022-08-19T02:43:38;3.42;;;3.17;;
24729;SDS011;12832;52.392;13.066;2022-08-19T02:46:18;3.08;;;2.88;;
24729;SDS011;12832;52.392;13.066;2022-08-19T02:48:47;3.03;;;2.83;;
24729;SDS011;12832;52.392;13.066;2022-08-19T02:51:18;3.30;;;3.10;;
24729;SDS011;12832;52.392;13.066;2022-08-19T02:53:46;3.13;;;2.92;;
24729;SDS011;12832;52.392;13.066;2022-08-19T02:56:13;3.28;;;3.05;;
24729;SDS011;12832;52.392;13.066;2022-08-19T02:58:40;3.10;;;2.90;;
24729;SDS011;12832;52.392;13.066;2022-08-19T03:01:06;3.30;;;3.10;;
24729;SDS011;12832;52.392;13.066;2022-08-19T03:03:33;3.22;;;3.03;;
24729;SDS011;12832;52.392;13.066;2022-08-19T03:06:06;2.85;;;2.65;;
24729;SDS011;12832;52.392;13.066;2022-08-19T03:08:36;3.08;;;2.88;;
24729;SDS011;12832;52.392;13.066;2022-08-19T03:11:03;3.17;;;2.97;;
24729;SDS011;12832;52.392;13.066;2022-08-19T03:13:29;3.00;;;2.80;;
24729;SDS011;12832;52.392;13.066;2022-08-19T03:15:55;3.42;;;3.22;;
24729;SDS011;12832;52.392;13.066;2022-08-19T03:18:22;2.97;;;2.80;;
24729;SDS011;12832;52.392;13.066;2022-08-19T03:20:50;2.78;;;2.60;;
24729;SDS011;12832;52.392;13.066;2022-08-19T03:23:21;3.10;;;2.90;;
24729;SDS011;12832;52.392;13.066;2022-08-19T03:25:48;3.10;;;2.90;;
24729;SDS011;12832;52.392;13.066;2022-08-19T03:28:36;2.90;;;2.70;;
24729;SDS011;12832;52.392;13.066;2022-08-19T03:31:04;3.03;;;2.83;;
24729;SDS011;12832;52.392;13.066;2022-08-19T03:33:55;3.25;;;3.05;;
24729;SDS011;12832;52.392;13.066;2022-08-19T03:36:22;2.85;;;2.65;;
24729;SDS011;12832;52.392;13.066;2022-08-19T03:38:58;3.10;;;2.90;;
24729;SDS011;12832;52.392;13.066;2022-08-19T03:41:26;2.97;;;2.78;;
24729;SDS011;12832;52.392;13.066;2022-08-19T03:44:11;3.08;;;2.88;;
24729;SDS011;12832;52.392;13.066;2022-08-19T03:46:49;3.03;;;2.83;;
24729;SDS011;12832;52.392;13.066;2022-08-19T03:49:18;3.10;;;2.90;;
24729;SDS011;12832;52.392;13.066;2022-08-19T03:51:52;3.25;;;3.05;;
24729;SDS011;12832;52.392;13.066;2022-08-19T03:54:22;2.92;;;2.72;;
24729;SDS011;12832;52.392;13.066;2022-08-19T03:56:50;3.15;;;2.95;;
24729;SDS011;12832;52.392;13.066;2022-08-19T03:59:23;3.40;;;3.20;;
24729;SDS011;12832;52.392;13.066;2022-08-19T04:01:53;3.20;;;3.00;;
24729;SDS011;12832;52.392;13.066;2022-08-19T04:04:20;3.33;;;3.13;;
24729;SDS011;12832;52.392;13.066;2022-08-19T04:06:47;3.00;;;2.80;;
24729;SDS011;12832;52.392;13.066;2022-08-19T04:09:13;3.03;;;2.83;;
24729;SDS011;12832;52.392;13.066;2022-08-19T04:11:41;3.30;;;3.00;;
24729;SDS011;12832;52.392;13.066;2022-08-19T04:14:16;3.10;;;2.90;;
24729;SDS011;12832;52.392;13.066;2022-08-19T04:16:44;3.35;;;3.05;;
24729;SDS011;12832;52.392;13.066;2022-08-19T04:19:12;3.30;;;3.00;;
24729;SDS011;12832;52.392;13.066;2022-08-19T04:21:39;3.28;;;3.08;;
24729;SDS011;12832;52.392;13.066;2022-08-19T04:24:08;3.20;;;3.00;;
24729;SDS011;12832;52.392;13.066;2022-08-19T04:26:35;2.90;;;2.70;;
24729;SDS011;12832;52.392;13.066;2022-08-19T04:29:06;3.17;;;2.97;;
24729;SDS011;12832;52.392;13.066;2022-08-19T04:31:38;3.10;;;2.90;;
24729;SDS011;12832;52.392;13.066;2022-08-19T04:34:07;3.45;;;3.25;;
24729;SDS011;12832;52.392;13.066;2022-08-19T04:36:38;3.45;;;3.15;;
24729;SDS011;12832;52.392;13.066;2022-08-19T04:39:12;3.85;;;3.55;;
24729;SDS011;12832;52.392;13.066;2022-08-19T04:41:43;3.97;;;3.67;;
24729;SDS011;12832;52.392;13.066;2022-08-19T04:44:29;4.05;;;3.72;;
24729;SDS011;12832;52.392;13.066;2022-08-19T04:46:58;3.70;;;3.40;;
24729;SDS011;12832;52.392;13.066;2022-08-19T04:49:26;4.18;;;3.88;;
24729;SDS011;12832;52.392;13.066;2022-08-19T04:51:53;4.32;;;4.03;;
24729;SDS011;12832;52.392;13.066;2022-08-19T04:54:21;4.40;;;4.10;;
24729;SDS011;12832;52.392;13.066;2022-08-19T04:57:04;3.95;;;3.67;;
24729;SDS011;12832;52.392;13.066;2022-08-19T04:59:33;4.60;;;4.30;;
24729;SDS011;12832;52.392;13.066;2022-08-19T05:01:59;4.30;;;3.97;;
24729;SDS011;12832;52.392;13.066;2022-08-19T05:04:26;4.30;;;4.00;;
24729;SDS011;12832;52.392;13.066;2022-08-19T05:06:57;4.40;;;4.00;;
24729;SDS011;12832;52.392;13.066;2022-08-19T05:09:26;6.38;;;4.50;;
24729;SDS011;12832;52.392;13.066;2022-08-19T05:11:53;4.97;;;4.55;;
24729;SDS011;12832;52.392;13.066;2022-08-19T05:14:19;4.82;;;4.43;;
24729;SDS011;12832;52.392;13.066;2022-08-19T05:16:47;4.53;;;4.20;;
24729;SDS011;12832;52.392;13.066;2022-08-19T05:19:13;4.43;;;4.05;;
24729;SDS011;12832;52.392;13.066;2022-08-19T05:21:59;5.00;;;4.32;;
24729;SDS011;12832;52.392;13.066;2022-08-19T05:24:44;4.25;;;3.90;;
24729;SDS011;12832;52.392;13.066;2022-08-19T05:27:31;4.55;;;4.22;;
24729;SDS011;12832;52.392;13.066;2022-08-19T05:29:58;4.13;;;3.83;;
24729;SDS011;12832;52.392;13.066;2022-08-19T05:32:25;6.35;;;4.50;;
24729;SDS011;12832;52.392;13.066;2022-08-19T05:34:51;5.10;;;4.45;;
24729;SDS011;12832;52.392;13.066;2022-08-19T05:37:17;4.60;;;4.30;;
24729;SDS011;12832;52.392;13.066;2022-08-19T05:39:44;5.32;;;4.25;;
24729;SDS011;12832;52.392;13.066;2022-08-19T05:42:16;4.20;;;3.90;;
24729;SDS011;12832;52.392;13.066;2022-08-19T05:44:43;4.63;;;4.22;;
24729;SDS011;12832;52.392;13.066;2022-08-19T05:47:10;4.70;;;4.30;;
24729;SDS011;12832;52.392;13.066;2022-08-19T05:49:38;4.30;;;4.00;;
24729;SDS011;12832;52.392;13.066;2022-08-19T05:52:05;4.55;;;4.20;;
24729;SDS011;12832;52.392;13.066;2022-08-19T05:54:39;4.90;;;4.50;;
24729;SDS011;12832;52.392;13.066;2022-08-19T05:57:10;4.85;;;4.45;;
24729;SDS011;12832;52.392;13.066;2022-08-19T05:59:38;4.13;;;3.83;;
24729;SDS011;12832;52.392;13.066;2022-08-19T06:02:04;4.38;;;3.97;;
24729;SDS011;12832;52.392;13.066;2022-08-19T06:04:32;6.43;;;4.30;;
24729;SDS011;12832;52.392;13.066;2022-08-19T06:06:59;5.45;;;4.30;;
24729;SDS011;12832;52.392;13.066;2022-08-19T06:09:38;4.60;;;4.20;;
24729;SDS011;12832;52.392;13.066;2022-08-19T06:12:05;4.43;;;4.13;;
24729;SDS011;12832;52.392;13.066;2022-08-19T06:14:32;4.65;;;4.28;;
24729;SDS011;12832;52.392;13.066;2022-08-19T06:17:02;5.30;;;4.40;;
24729;SDS011;12832;52.392;13.066;2022-08-19T06:19:32;4.72;;;4.32;;
24729;SDS011;12832;52.392;13.066;2022-08-19T06:21:59;5.03;;;4.18;;
24729;SDS011;12832;52.392;13.066;2022-08-19T06:24:28;5.95;;;4.50;;
24729;SDS011;12832;52.392;13.066;2022-08-19T06:26:59;4.70;;;4.30;;
24729;SDS011;12832;52.392;13.066;2022-08-19T06:29:27;4.90;;;4.55;;
24729;SDS011;12832;52.392;13.066;2022-08-19T06:31:55;4.68;;;4.28;;
24729;SDS011;12832;52.392;13.066;2022-08-19T06:34:24;4.70;;;4.30;;
24729;SDS011;12832;52.392;13.066;2022-08-19T06:36:52;5.00;;;4.60;;
24729;SDS011;12832;52.392;13.066;2022-08-19T06:39:23;5.22;;;4.20;;
24729;SDS011;12832;52.392;13.066;2022-08-19T06:41:53;4.90;;;4.50;;
24729;SDS011;12832;52.392;13.066;2022-08-19T06:44:25;4.28;;;3.97;;
24729;SDS011;12832;52.392;13.066;2022-08-19T06:46:55;4.90;;;4.40;;
24729;SDS011;12832;52.392;13.066;2022-08-19T06:49:23;4.90;;;4.50;;
24729;SDS011;12832;52.392;13.066;2022-08-19T06:51:53;5.22;;;4.75;;
24729;SDS011;12832;52.392;13.066;2022-08-19T06:54:22;7.18;;;4.97;;
24729;SDS011;12832;52.392;13.066;2022-08-19T06:56:48;4.72;;;4.40;;
24729;SDS011;12832;52.392;13.066;2022-08-19T06:59:18;6.70;;;4.90;;
24729;SDS011;12832;52.392;13.066;2022-08-19T07:01:51;5.20;;;4.70;;
24729;SDS011;12832;52.392;13.066;2022-08-19T07:04:21;5.38;;;4.85;;
24729;SDS011;12832;52.392;13.066;2022-08-19T07:07:02;5.28;;;4.88;;
24729;SDS011;12832;52.392;13.066;2022-08-19T07:09:46;6.30;;;5.80;;
24729;SDS011;12832;52.392;13.066;2022-08-19T07:12:25;5.80;;;5.35;;
24729;SDS011;12832;52.392;13.066;2022-08-19T07:14:55;5.70;;;5.22;;
24729;SDS011;12832;52.392;13.066;2022-08-19T07:17:23;5.35;;;4.90;;
24729;SDS011;12832;52.392;13.066;2022-08-19T07:19:49;5.30;;;4.90;;
24729;SDS011;12832;52.392;13.066;2022-08-19T07:22:19;6.00;;;5.40;;
24729;SDS011;12832;52.392;13.066;2022-08-19T07:24:49;5.22;;;4.72;;
24729;SDS011;12832;52.392;13.066;2022-08-19T07:27:17;5.28;;;4.82;;
24729;SDS011;12832;52.392;13.066;2022-08-19T07:29:50;5.43;;;5.03;;
24729;SDS011;12832;52.392;13.066;2022-08-19T07:32:23;6.43;;;5.03;;
24729;SDS011;12832;52.392;13.066;2022-08-19T07:34:52;5.85;;;5.35;;
24729;SDS011;12832;52.392;13.066;2022-08-19T07:37:18;5.40;;;4.88;;
24729;SDS011;12832;52.392;13.066;2022-08-19T07:39:44;5.60;;;5.05;;
24729;SDS011;12832;52.392;13.066;2022-08-19T07:42:10;5.60;;;5.10;;
24729;SDS011;12832;52.392;13.066;2022-08-19T07:44:38;6.45;;;5.18;;
24729;SDS011;12832;52.392;13.066;2022-08-19T07:47:10;5.15;;;4.80;;
24729;SDS011;12832;52.392;13.066;2022-08-19T07:49:58;6.13;;;5.07;;
24729;SDS011;12832;52.392;13.066;2022-08-19T07:52:24;5.53;;;4.97;;
24729;SDS011;12832;52.392;13.066;2022-08-19T07:54:50;5.55;;;4.95;;
24729;SDS011;12832;52.392;13.066;2022-08-19T07:57:17;5.85;;;5.45;;
24729;SDS011;12832;52.392;13.066;2022-08-19T07:59:44;5.75;;;5.25;;
24729;SDS011;12832;52.392;13.066;2022-08-19T08:02:11;5.72;;;5.30;;
24729;SDS011;12832;52.392;13.066;2022-08-19T08:04:37;5.53;;;5.00;;
24729;SDS011;12832;52.392;13.066;2022-08-19T08:07:22;6.10;;;5.60;;
24729;SDS011;12832;52.392;13.066;2022-08-19T08:10:11;5.68;;;5.28;;
24729;SDS011;12832;52.392;13.066;2022-08-19T08:12:46;5.20;;;4.80;;
24729;SDS011;12832;52.392;13.066;2022-08-19T08:15:37;5.10;;;4.72;;
24729;SDS011;12832;52.392;13.066;2022-08-19T08:18:09;6.00;;;5.22;;
24729;SDS011;12832;52.392;13.066;2022-08-19T08:20:37;5.63;;;5.15;;
24729;SDS011;12832;52.392;13.066;2022-08-19T08:23:03;5.95;;;5.47;;
24729;SDS011;12832;52.392;13.066;2022-08-19T08:25:48;5.60;;;4.88;;
24729;SDS011;12832;52.392;13.066;2022-08-19T08:28:15;5.72;;;5.22;;
24729;SDS011;12832;52.392;13.066;2022-08-19T08:30:43;5.88;;;5.28;;
24729;SDS011;12832;52.392;13.066;2022-08-19T08:33:13;5.35;;;4.90;;
24729;SDS011;12832;52.392;13.066;2022-08-19T08:35:57;5.78;;;5.32;;
24729;SDS011;12832;52.392;13.066;2022-08-19T08:38:23;5.88;;;5.25;;
24729;SDS011;12832;52.392;13.066;2022-08-19T08:40:53;6.72;;;6.10;;
24729;SDS011;12832;52.392;13.066;2022-08-19T08:43:33;6.68;;;6.07;;
24729;SDS011;12832;52.392;13.066;2022-08-19T08:46:10;6.55;;;6.05;;
24729;SDS011;12832;52.392;13.066;2022-08-19T08:49:01;6.10;;;5.60;;
24729;SDS011;12832;52.392;13.066;2022-08-19T08:51:36;6.55;;;5.97;;
24729;SDS011;12832;52.392;13.066;2022-08-19T08:54:05;6.88;;;6.38;;
24729;SDS011;12832;52.392;13.066;2022-08-19T08:56:35;7.50;;;6.80;;
24729;SDS011;12832;52.392;13.066;2022-08-19T08:59:05;6.35;;;5.88;;
24729;SDS011;12832;52.392;13.066;2022-08-19T09:01:45;6.95;;;6.45;;
24729;SDS011;12832;52.392;13.066;2022-08-19T09:04:12;7.60;;;7.00;;
24729;SDS011;12832;52.392;13.066;2022-08-19T09:09:45;7.53;;;6.78;;
24729;SDS011;12832;52.392;13.066;2022-08-19T09:14:59;7.95;;;7.30;;
24729;SDS011;12832;52.392;13.066;2022-08-19T09:17:30;6.60;;;6.10;;
24729;SDS011;12832;52.392;13.066;2022-08-19T09:22:43;7.40;;;6.55;;
24729;SDS011;12832;52.392;13.066;2022-08-19T09:25:11;7.40;;;6.80;;
24729;SDS011;12832;52.392;13.066;2022-08-19T09:27:40;7.40;;;6.88;;
24729;SDS011;12832;52.392;13.066;2022-08-19T09:30:22;7.68;;;6.97;;
24729;SDS011;12832;52.392;13.066;2022-08-19T09:32:50;6.97;;;6.47;;
24729;SDS011;12832;52.392;13.066;2022-08-19T09:35:18;7.35;;;6.30;;
24729;SDS011;12832;52.392;13.066;2022-08-19T09:37:54;6.60;;;6.05;;
24729;SDS011;12832;52.392;13.066;2022-08-19T09:40:25;6.90;;;6.32;;
24729;SDS011;12832;52.392;13.066;2022-08-19T09:42:55;6.55;;;6.05;;
24729;SDS011;12832;52.392;13.066;2022-08-19T09:45:24;7.20;;;6.60;;
24729;SDS011;12832;52.392;13.066;2022-08-19T09:47:51;7.03;;;6.43;;
24729;SDS011;12832;52.392;13.066;2022-08-19T09:50:20;7.20;;;6.60;;
24729;SDS011;12832;52.392;13.066;2022-08-19T09:52:47;7.63;;;6.88;;
24729;SDS011;12832;52.392;13.066;2022-08-19T09:55:23;7.72;;;7.13;;
24729;SDS011;12832;52.392;13.066;2022-08-19T09:58:00;8.00;;;7.32;;
24729;SDS011;12832;52.392;13.066;2022-08-19T10:00:27;7.50;;;6.90;;
24729;SDS011;12832;52.392;13.066;2022-08-19T10:02:54;7.60;;;7.00;;
24729;SDS011;12832;52.392;13.066;2022-08-19T10:05:21;8.38;;;7.47;;
24729;SDS011;12832;52.392;13.066;2022-08-19T10:08:07;8.13;;;7.53;;
24729;SDS011;12832;52.392;13.066;2022-08-19T10:10:39;8.50;;;7.90;;
24729;SDS011;12832;52.392;13.066;2022-08-19T10:13:12;8.95;;;8.10;;
24729;SDS011;12832;52.392;13.066;2022-08-19T10:15:40;8.02;;;7.40;;
24729;SDS011;12832;52.392;13.066;2022-08-19T10:18:13;8.35;;;7.63;;
24729;SDS011;12832;52.392;13.066;2022-08-19T10:20:50;8.60;;;7.90;;
24729;SDS011;12832;52.392;13.066;2022-08-19T10:23:19;8.30;;;7.53;;
24729;SDS011;12832;52.392;13.066;2022-08-19T10:25:46;8.45;;;7.75;;
24729;SDS011;12832;52.392;13.066;2022-08-19T10:28:13;9.35;;;8.55;;
24729;SDS011;12832;52.392;13.066;2022-08-19T10:30:40;9.35;;;8.55;;
24729;SDS011;12832;52.392;13.066;2022-08-19T10:33:07;7.40;;;6.90;;
24729;SDS011;12832;52.392;13.066;2022-08-19T10:35:36;8.30;;;7.50;;
24729;SDS011;12832;52.392;13.066;2022-08-19T10:38:23;8.23;;;7.60;;
24729;SDS011;12832;52.392;13.066;2022-08-19T10:40:57;8.10;;;7.40;;
24729;SDS011;12832;52.392;13.066;2022-08-19T10:43:23;7.72;;;7.18;;
24729;SDS011;12832;52.392;13.066;2022-08-19T10:45:53;8.32;;;7.63;;
24729;SDS011;12832;52.392;13.066;2022-08-19T10:48:24;8.25;;;7.65;;
24729;SDS011;12832;52.392;13.066;2022-08-19T10:50:53;8.32;;;7.63;;
24729;SDS011;12832;52.392;13.066;2022-08-19T10:53:48;8.50;;;7.80;;
24729;SDS011;12832;52.392;13.066;2022-08-19T10:56:15;7.85;;;7.25;;
24729;SDS011;12832;52.392;13.066;2022-08-19T10:59:00;8.43;;;7.72;;
24729;SDS011;12832;52.392;13.066;2022-08-19T11:01:29;7.85;;;7.25;;
24729;SDS011;12832;52.392;13.066;2022-08-19T11:04:02;8.10;;;7.50;;
24729;SDS011;12832;52.392;13.066;2022-08-19T11:06:31;8.10;;;7.50;;
24729;SDS011;12832;52.392;13.066;2022-08-19T11:08:57;7.78;;;7.18;;
24729;SDS011;12832;52.392;13.066;2022-08-19T11:11:25;7.80;;;7.20;;
24729;SDS011;12832;52.392;13.066;2022-08-19T11:13:54;7.70;;;7.03;;
24729;SDS011;12832;52.392;13.066;2022-08-19T11:16:21;7.93;;;7.32;;
24729;SDS011;12832;52.392;13.066;2022-08-19T11:18:50;8.00;;;7.30;;
24729;SDS011;12832;52.392;13.066;2022-08-19T11:21:21;8.20;;;7.50;;
24729;SDS011;12832;52.392;13.066;2022-08-19T11:23:51;6.95;;;6.43;;
24729;SDS011;12832;52.392;13.066;2022-08-19T11:26:19;7.93;;;7.32;;
24729;SDS011;12832;52.392;13.066;2022-08-19T11:28:47;8.23;;;7.50;;
24729;SDS011;12832;52.392;13.066;2022-08-19T11:31:18;7.93;;;7.22;;
24729;SDS011;12832;52.392;13.066;2022-08-19T11:33:49;8.43;;;7.82;;
24729;SDS011;12832;52.392;13.066;2022-08-19T11:36:16;7.47;;;6.97;;
24729;SDS011;12832;52.392;13.066;2022-08-19T11:38:44;7.57;;;7.07;;
24729;SDS011;12832;52.392;13.066;2022-08-19T11:41:14;7.13;;;6.63;;
24729;SDS011;12832;52.392;13.066;2022-08-19T11:43:41;7.47;;;6.97;;
24729;SDS011;12832;52.392;13.066;2022-08-19T11:46:09;7.95;;;7.35;;
24729;SDS011;12832;52.392;13.066;2022-08-19T11:48:37;7.18;;;6.68;;
24729;SDS011;12832;52.392;13.066;2022-08-19T11:51:05;7.07;;;6.50;;
24729;SDS011;12832;52.392;13.066;2022-08-19T11:53:34;7.30;;;6.80;;
24729;SDS011;12832;52.392;13.066;2022-08-19T11:56:02;7.55;;;6.90;;
24729;SDS011;12832;52.392;13.066;2022-08-19T11:58:30;7.45;;;6.85;;
24729;SDS011;12832;52.392;13.066;2022-08-19T12:00:57;7.43;;;6.90;;
24729;SDS011;12832;52.392;13.066;2022-08-19T12:03:23;7.50;;;6.90;;
24729;SDS011;12832;52.392;13.066;2022-08-19T12:05:50;7.20;;;6.70;;
24729;SDS011;12832;52.392;13.066;2022-08-19T12:08:16;6.72;;;6.22;;
24729;SDS011;12832;52.392;13.066;2022-08-19T12:10:43;7.20;;;6.70;;
24729;SDS011;12832;52.392;13.066;2022-08-19T12:13:11;7.95;;;7.35;;
24729;SDS011;12832;52.392;13.066;2022-08-19T12:15:45;6.78;;;6.28;;
24729;SDS011;12832;52.392;13.066;2022-08-19T12:18:13;7.35;;;6.75;;
24729;SDS011;12832;52.392;13.066;2022-08-19T12:20:40;7.05;;;6.55;;
24729;SDS011;12832;52.392;13.066;2022-08-19T12:23:08;6.97;;;6.40;;
24729;SDS011;12832;52.392;13.066;2022-08-19T12:25:35;6.43;;;6.03;;
24729;SDS011;12832;52.392;13.066;2022-08-19T12:28:02;6.57;;;6.07;;
24729;SDS011;12832;52.392;13.066;2022-08-19T12:30:29;7.20;;;6.70;;
24729;SDS011;12832;52.392;13.066;2022-08-19T12:32:56;6.85;;;6.35;;
24729;SDS011;12832;52.392;13.066;2022-08-19T12:35:23;6.40;;;5.88;;
24729;SDS011;12832;52.392;13.066;2022-08-19T12:37:49;7.07;;;6.53;;
24729;SDS011;12832;52.392;13.066;2022-08-19T12:40:22;6.53;;;6.03;;
24729;SDS011;12832;52.392;13.066;2022-08-19T12:42:51;6.75;;;6.25;;
24729;SDS011;12832;52.392;13.066;2022-08-19T12:45:17;6.43;;;5.93;;
24729;SDS011;12832;52.392;13.066;2022-08-19T12:47:43;6.40;;;5.85;;
24729;SDS011;12832;52.392;13.066;2022-08-19T12:50:12;5.85;;;5.40;;
24729;SDS011;12832;52.392;13.066;2022-08-19T12:52:39;5.80;;;5.40;;
24729;SDS011;12832;52.392;13.066;2022-08-19T12:55:08;5.65;;;5.25;;
24729;SDS011;12832;52.392;13.066;2022-08-19T12:57:34;5.70;;;5.30;;
24729;SDS011;12832;52.392;13.066;2022-08-19T13:00:03;5.75;;;5.25;;
24729;SDS011;12832;52.392;13.066;2022-08-19T13:02:45;5.38;;;4.97;;
24729;SDS011;12832;52.392;13.066;2022-08-19T13:05:16;5.40;;;5.00;;
24729;SDS011;12832;52.392;13.066;2022-08-19T13:07:48;5.80;;;4.82;;
24729;SDS011;12832;52.392;13.066;2022-08-19T13:10:17;5.22;;;4.82;;
24729;SDS011;12832;52.392;13.066;2022-08-19T13:12:46;5.90;;;5.35;;
24729;SDS011;12832;52.392;13.066;2022-08-19T13:15:15;5.53;;;5.03;;
24729;SDS011;12832;52.392;13.066;2022-08-19T13:17:49;5.32;;;4.82;;
24729;SDS011;12832;52.392;13.066;2022-08-19T13:20:18;4.90;;;4.55;;
24729;SDS011;12832;52.392;13.066;2022-08-19T13:22:46;5.03;;;4.63;;
24729;SDS011;12832;52.392;13.066;2022-08-19T13:25:13;5.07;;;4.68;;
24729;SDS011;12832;52.392;13.066;2022-08-19T13:27:43;4.80;;;4.50;;
24729;SDS011;12832;52.392;13.066;2022-08-19T13:30:10;4.88;;;4.57;;
24729;SDS011;12832;52.392;13.066;2022-08-19T13:32:57;5.05;;;4.65;;
24729;SDS011;12832;52.392;13.066;2022-08-19T13:38:19;5.18;;;4.63;;
24729;SDS011;12832;52.392;13.066;2022-08-19T13:40:47;4.63;;;4.22;;
24729;SDS011;12832;52.392;13.066;2022-08-19T13:43:15;5.30;;;4.90;;
24729;SDS011;12832;52.392;13.066;2022-08-19T13:45:52;5.10;;;4.70;;
24729;SDS011;12832;52.392;13.066;2022-08-19T13:48:21;4.80;;;4.40;;
24729;SDS011;12832;52.392;13.066;2022-08-19T13:50:49;4.63;;;4.32;;
24729;SDS011;12832;52.392;13.066;2022-08-19T13:53:15;4.72;;;4.32;;
24729;SDS011;12832;52.392;13.066;2022-08-19T13:55:42;4.60;;;4.30;;
24729;SDS011;12832;52.392;13.066;2022-08-19T13:58:09;4.47;;;4.18;;
24729;SDS011;12832;52.392;13.066;2022-08-19T14:00:37;4.68;;;4.32;;
24729;SDS011;12832;52.392;13.066;2022-08-19T14:03:09;4.50;;;4.20;;
24729;SDS011;12832;52.392;13.066;2022-08-19T14:05:36;4.63;;;4.22;;
24729;SDS011;12832;52.392;13.066;2022-08-19T14:08:03;4.70;;;4.30;;
24729;SDS011;12832;52.392;13.066;2022-08-19T14:10:29;4.22;;;3.90;;
24729;SDS011;12832;52.392;13.066;2022-08-19T14:12:57;4.43;;;4.13;;
24729;SDS011;12832;52.392;13.066;2022-08-19T14:15:25;4.07;;;3.78;;
24729;SDS011;12832;52.392;13.066;2022-08-19T14:17:51;4.10;;;3.80;;
24729;SDS011;12832;52.392;13.066;2022-08-19T14:20:18;4.22;;;3.90;;
24729;SDS011;12832;52.392;13.066;2022-08-19T14:22:44;4.60;;;4.30;;
24729;SDS011;12832;52.392;13.066;2022-08-19T14:25:19;3.80;;;3.50;;
24729;SDS011;12832;52.392;13.066;2022-08-19T14:27:48;3.72;;;3.40;;
24729;SDS011;12832;52.392;13.066;2022-08-19T14:30:16;4.07;;;3.78;;
24729;SDS011;12832;52.392;13.066;2022-08-19T14:32:44;3.60;;;3.40;;
24729;SDS011;12832;52.392;13.066;2022-08-19T14:35:11;4.15;;;3.95;;
24729;SDS011;12832;52.392;13.066;2022-08-19T14:37:40;3.83;;;3.60;;
24729;SDS011;12832;52.392;13.066;2022-08-19T14:40:12;3.90;;;3.70;;
24729;SDS011;12832;52.392;13.066;2022-08-19T14:42:40;3.67;;;3.47;;
24729;SDS011;12832;52.392;13.066;2022-08-19T14:45:07;3.70;;;3.50;;
24729;SDS011;12832;52.392;13.066;2022-08-19T14:47:34;3.40;;;3.20;;
24729;SDS011;12832;52.392;13.066;2022-08-19T14:50:03;3.95;;;3.75;;
24729;SDS011;12832;52.392;13.066;2022-08-19T14:52:35;4.00;;;3.70;;
24729;SDS011;12832;52.392;13.066;2022-08-19T14:55:02;3.50;;;3.30;;
24729;SDS011;12832;52.392;13.066;2022-08-19T14:57:32;3.63;;;3.42;;
24729;SDS011;12832;52.392;13.066;2022-08-19T14:59:59;3.50;;;3.30;;
24729;SDS011;12832;52.392;13.066;2022-08-19T15:02:25;3.88;;;3.58;;